sensor_id;sensor_type;location;lat;lon;timestamp;temperature;humidity
68691;DHT22;55675;49.588;8.640;2023-06-24T00:02:02;18.80;69.20
68691;DHT22;55675;49.588;8.640;2023-06-24T00:04:28;18.70;70.50
68691;DHT22;55675;49.588;8.640;2023-06-24T00:06:53;18.70;70.10
68691;DHT22;55675;49.588;8.640;2023-06-24T00:09:24;18.60;70.20
68691;DHT22;55675;49.588;8.640;2023-06-24T00:11:49;18.50;70.30
68691;DHT22;55675;49.588;8.640;2023-06-24T00:14:14;18.50;70.50
68691;DHT22;55675;49.588;8.640;2023-06-24T00:16:40;18.50;70.60
68691;DHT22;55675;49.588;8.640;2023-06-24T00:19:07;18.40;70.70
68691;DHT22;55675;49.588;8.640;2023-06-24T00:21:33;18.40;70.90
68691;DHT22;55675;49.588;8.640;2023-06-24T00:23:59;18.40;72.20
68691;DHT22;55675;49.588;8.640;2023-06-24T00:26:29;18.50;71.90
68691;DHT22;55675;49.588;8.640;2023-06-24T00:28:55;18.50;71.70
68691;DHT22;55675;49.588;8.640;2023-06-24T00:31:20;18.50;71.90
68691;DHT22;55675;49.588;8.640;2023-06-24T00:33:46;18.50;71.90
68691;DHT22;55675;49.588;8.640;2023-06-24T00:36:11;18.50;71.90
68691;DHT22;55675;49.588;8.640;2023-06-24T00:38:37;18.60;72.20
68691;DHT22;55675;49.588;8.640;2023-06-24T00:41:03;18.50;72.40
68691;DHT22;55675;49.588;8.640;2023-06-24T00:43:29;18.60;73.00
68691;DHT22;55675;49.588;8.640;2023-06-24T00:45:55;18.60;73.20
68691;DHT22;55675;49.588;8.640;2023-06-24T00:48:21;18.60;73.50
68691;DHT22;55675;49.588;8.640;2023-06-24T00:50:46;18.60;73.70
68691;DHT22;55675;49.588;8.640;2023-06-24T00:53:15;18.60;74.00
68691;DHT22;55675;49.588;8.640;2023-06-24T00:55:40;18.60;73.70
68691;DHT22;55675;49.588;8.640;2023-06-24T00:58:06;18.60;73.50
68691;DHT22;55675;49.588;8.640;2023-06-24T01:00:32;18.60;74.80
68691;DHT22;55675;49.588;8.640;2023-06-24T01:02:59;18.60;75.30
68691;DHT22;55675;49.588;8.640;2023-06-24T01:05:25;18.60;74.90
68691;DHT22;55675;49.588;8.640;2023-06-24T01:07:51;18.60;74.70
68691;DHT22;55675;49.588;8.640;2023-06-24T01:10:20;18.60;74.90
68691;DHT22;55675;49.588;8.640;2023-06-24T01:12:47;18.60;74.60
68691;DHT22;55675;49.588;8.640;2023-06-24T01:15:13;18.60;74.30
68691;DHT22;55675;49.588;8.640;2023-06-24T01:17:45;18.60;74.80
68691;DHT22;55675;49.588;8.640;2023-06-24T01:20:34;18.60;74.20
68691;DHT22;55675;49.588;8.640;2023-06-24T01:25:43;18.60;74.10
68691;DHT22;55675;49.588;8.640;2023-06-24T01:28:30;18.60;74.20
68691;DHT22;55675;49.588;8.640;2023-06-24T01:33:46;18.60;74.00
68691;DHT22;55675;49.588;8.640;2023-06-24T01:36:15;18.60;74.10
68691;DHT22;55675;49.588;8.640;2023-06-24T01:38:58;18.50;74.10
68691;DHT22;55675;49.588;8.640;2023-06-24T01:41:26;18.50;74.00
68691;DHT22;55675;49.588;8.640;2023-06-24T01:43:56;18.50;73.80
68691;DHT22;55675;49.588;8.640;2023-06-24T01:46:23;18.50;73.80
68691;DHT22;55675;49.588;8.640;2023-06-24T01:48:50;18.50;73.70
68691;DHT22;55675;49.588;8.640;2023-06-24T01:51:20;18.50;73.70
68691;DHT22;55675;49.588;8.640;2023-06-24T01:53:49;18.40;73.80
68691;DHT22;55675;49.588;8.640;2023-06-24T01:56:16;18.40;74.20
68691;DHT22;55675;49.588;8.640;2023-06-24T01:58:43;18.30;74.80
68691;DHT22;55675;49.588;8.640;2023-06-24T02:01:09;18.20;75.00
68691;DHT22;55675;49.588;8.640;2023-06-24T02:03:35;18.10;75.00
68691;DHT22;55675;49.588;8.640;2023-06-24T02:06:01;18.10;75.30
68691;DHT22;55675;49.588;8.640;2023-06-24T02:08:31;17.90;75.40
68691;DHT22;55675;49.588;8.640;2023-06-24T02:10:58;17.90;75.60
68691;DHT22;55675;49.588;8.640;2023-06-24T02:13:24;17.90;75.90
68691;DHT22;55675;49.588;8.640;2023-06-24T02:15:50;17.90;76.10
68691;DHT22;55675;49.588;8.640;2023-06-24T02:18:16;17.80;76.20
68691;DHT22;55675;49.588;8.640;2023-06-24T02:20:42;17.80;76.50
68691;DHT22;55675;49.588;8.640;2023-06-24T02:23:09;17.80;76.60
68691;DHT22;55675;49.588;8.640;2023-06-24T02:25:36;17.70;76.70
68691;DHT22;55675;49.588;8.640;2023-06-24T02:28:04;17.70;76.90
68691;DHT22;55675;49.588;8.640;2023-06-24T02:30:30;17.70;77.10
68691;DHT22;55675;49.588;8.640;2023-06-24T02:32:55;17.60;77.20
68691;DHT22;55675;49.588;8.640;2023-06-24T02:35:22;17.60;77.40
68691;DHT22;55675;49.588;8.640;2023-06-24T02:37:47;17.60;77.50
68691;DHT22;55675;49.588;8.640;2023-06-24T02:40:13;17.60;77.70
68691;DHT22;55675;49.588;8.640;2023-06-24T02:42:38;17.50;77.80
68691;DHT22;55675;49.588;8.640;2023-06-24T02:45:04;17.50;77.90
68691;DHT22;55675;49.588;8.640;2023-06-24T02:47:30;17.50;78.20
68691;DHT22;55675;49.588;8.640;2023-06-24T02:49:55;17.50;78.30
68691;DHT22;55675;49.588;8.640;2023-06-24T02:52:23;17.40;78.40
68691;DHT22;55675;49.588;8.640;2023-06-24T02:54:49;17.40;78.70
68691;DHT22;55675;49.588;8.640;2023-06-24T02:57:14;17.40;78.80
68691;DHT22;55675;49.588;8.640;2023-06-24T02:59:40;17.40;79.10
68691;DHT22;55675;49.588;8.640;2023-06-24T03:02:06;17.30;79.70
68691;DHT22;55675;49.588;8.640;2023-06-24T03:04:32;17.30;79.70
68691;DHT22;55675;49.588;8.640;2023-06-24T03:06:57;17.30;79.70
68691;DHT22;55675;49.588;8.640;2023-06-24T03:09:24;17.30;79.90
68691;DHT22;55675;49.588;8.640;2023-06-24T03:11:50;17.20;80.00
68691;DHT22;55675;49.588;8.640;2023-06-24T03:14:15;17.20;80.20
68691;DHT22;55675;49.588;8.640;2023-06-24T03:16:41;17.20;80.20
68691;DHT22;55675;49.588;8.640;2023-06-24T03:19:06;17.30;80.30
68691;DHT22;55675;49.588;8.640;2023-06-24T03:21:32;17.30;80.30
68691;DHT22;55675;49.588;8.640;2023-06-24T03:23:57;17.30;80.50
68691;DHT22;55675;49.588;8.640;2023-06-24T03:26:34;17.30;80.70
68691;DHT22;55675;49.588;8.640;2023-06-24T03:28:59;17.30;80.70
68691;DHT22;55675;49.588;8.640;2023-06-24T03:31:25;17.30;80.70
68691;DHT22;55675;49.588;8.640;2023-06-24T03:33:50;17.30;80.80
68691;DHT22;55675;49.588;8.640;2023-06-24T03:36:16;17.30;80.90
68691;DHT22;55675;49.588;8.640;2023-06-24T03:38:41;17.30;81.90
68691;DHT22;55675;49.588;8.640;2023-06-24T03:41:07;17.30;81.20
68691;DHT22;55675;49.588;8.640;2023-06-24T03:43:32;17.30;82.10
68691;DHT22;55675;49.588;8.640;2023-06-24T03:45:57;17.20;82.50
68691;DHT22;55675;49.588;8.640;2023-06-24T03:48:23;17.20;82.20
68691;DHT22;55675;49.588;8.640;2023-06-24T03:50:48;17.20;82.20
68691;DHT22;55675;49.588;8.640;2023-06-24T03:53:14;17.20;82.10
68691;DHT22;55675;49.588;8.640;2023-06-24T03:55:39;17.30;82.30
68691;DHT22;55675;49.588;8.640;2023-06-24T03:58:05;17.30;82.30
68691;DHT22;55675;49.588;8.640;2023-06-24T04:00:30;17.30;82.30
68691;DHT22;55675;49.588;8.640;2023-06-24T04:02:55;17.30;82.30
68691;DHT22;55675;49.588;8.640;2023-06-24T04:05:21;17.40;82.40
68691;DHT22;55675;49.588;8.640;2023-06-24T04:07:47;17.40;82.40
68691;DHT22;55675;49.588;8.640;2023-06-24T04:10:12;17.40;82.50
68691;DHT22;55675;49.588;8.640;2023-06-24T04:12:38;17.40;82.40
68691;DHT22;55675;49.588;8.640;2023-06-24T04:15:04;17.50;82.40
68691;DHT22;55675;49.588;8.640;2023-06-24T04:17:30;17.50;82.30
68691;DHT22;55675;49.588;8.640;2023-06-24T04:19:56;17.60;82.40
68691;DHT22;55675;49.588;8.640;2023-06-24T04:22:21;17.60;82.40
68691;DHT22;55675;49.588;8.640;2023-06-24T04:24:46;17.70;82.80
68691;DHT22;55675;49.588;8.640;2023-06-24T04:27:12;17.90;83.50
68691;DHT22;55675;49.588;8.640;2023-06-24T04:29:37;17.90;83.90
68691;DHT22;55675;49.588;8.640;2023-06-24T04:32:03;18.00;83.90
68691;DHT22;55675;49.588;8.640;2023-06-24T04:34:28;18.00;83.40
68691;DHT22;55675;49.588;8.640;2023-06-24T04:36:54;18.10;82.90
68691;DHT22;55675;49.588;8.640;2023-06-24T04:39:19;18.20;82.60
68691;DHT22;55675;49.588;8.640;2023-06-24T04:41:45;18.30;82.40
68691;DHT22;55675;49.588;8.640;2023-06-24T04:44:11;18.40;82.40
68691;DHT22;55675;49.588;8.640;2023-06-24T04:46:36;18.50;82.10
68691;DHT22;55675;49.588;8.640;2023-06-24T04:49:02;18.60;81.80
68691;DHT22;55675;49.588;8.640;2023-06-24T04:51:28;18.70;81.50
68691;DHT22;55675;49.588;8.640;2023-06-24T04:53:53;18.70;81.20
68691;DHT22;55675;49.588;8.640;2023-06-24T04:56:19;18.80;81.20
68691;DHT22;55675;49.588;8.640;2023-06-24T04:58:44;18.90;81.50
68691;DHT22;55675;49.588;8.640;2023-06-24T05:01:10;19.00;81.70
68691;DHT22;55675;49.588;8.640;2023-06-24T05:03:35;19.00;81.70
68691;DHT22;55675;49.588;8.640;2023-06-24T05:06:01;19.10;81.70
68691;DHT22;55675;49.588;8.640;2023-06-24T05:08:26;19.20;82.00
68691;DHT22;55675;49.588;8.640;2023-06-24T05:10:51;19.20;81.70
68691;DHT22;55675;49.588;8.640;2023-06-24T05:13:17;19.30;81.80
68691;DHT22;55675;49.588;8.640;2023-06-24T05:15:42;19.40;81.70
68691;DHT22;55675;49.588;8.640;2023-06-24T05:18:08;19.50;81.70
68691;DHT22;55675;49.588;8.640;2023-06-24T05:20:33;19.60;81.50
68691;DHT22;55675;49.588;8.640;2023-06-24T05:22:59;19.80;81.40
68691;DHT22;55675;49.588;8.640;2023-06-24T05:25:24;19.90;81.00
68691;DHT22;55675;49.588;8.640;2023-06-24T05:27:50;20.00;79.30
68691;DHT22;55675;49.588;8.640;2023-06-24T05:30:15;20.10;78.50
68691;DHT22;55675;49.588;8.640;2023-06-24T05:32:40;20.20;76.80
68691;DHT22;55675;49.588;8.640;2023-06-24T05:35:06;20.30;76.70
68691;DHT22;55675;49.588;8.640;2023-06-24T05:37:32;20.40;77.60
68691;DHT22;55675;49.588;8.640;2023-06-24T05:39:57;20.40;78.10
68691;DHT22;55675;49.588;8.640;2023-06-24T05:42:26;20.50;77.70
68691;DHT22;55675;49.588;8.640;2023-06-24T05:44:52;20.50;77.40
68691;DHT22;55675;49.588;8.640;2023-06-24T05:47:17;20.60;77.60
68691;DHT22;55675;49.588;8.640;2023-06-24T05:49:42;20.80;77.40
68691;DHT22;55675;49.588;8.640;2023-06-24T05:52:08;20.90;77.10
68691;DHT22;55675;49.588;8.640;2023-06-24T05:54:33;21.10;76.70
68691;DHT22;55675;49.588;8.640;2023-06-24T05:56:59;21.20;76.50
68691;DHT22;55675;49.588;8.640;2023-06-24T05:59:24;21.40;75.70
68691;DHT22;55675;49.588;8.640;2023-06-24T06:01:50;21.50;75.50
68691;DHT22;55675;49.588;8.640;2023-06-24T06:04:15;21.60;75.00
68691;DHT22;55675;49.588;8.640;2023-06-24T06:06:41;21.70;73.60
68691;DHT22;55675;49.588;8.640;2023-06-24T06:09:06;21.80;72.60
68691;DHT22;55675;49.588;8.640;2023-06-24T06:11:32;21.90;71.50
68691;DHT22;55675;49.588;8.640;2023-06-24T06:13:57;21.90;71.20
68691;DHT22;55675;49.588;8.640;2023-06-24T06:16:23;22.10;71.10
68691;DHT22;55675;49.588;8.640;2023-06-24T06:18:48;22.20;70.20
68691;DHT22;55675;49.588;8.640;2023-06-24T06:21:14;22.30;69.50
68691;DHT22;55675;49.588;8.640;2023-06-24T06:23:39;22.40;68.70
68691;DHT22;55675;49.588;8.640;2023-06-24T06:26:05;22.50;68.90
68691;DHT22;55675;49.588;8.640;2023-06-24T06:28:30;22.60;68.00
68691;DHT22;55675;49.588;8.640;2023-06-24T06:30:56;22.70;67.40
68691;DHT22;55675;49.588;8.640;2023-06-24T06:33:22;22.70;66.70
68691;DHT22;55675;49.588;8.640;2023-06-24T06:35:47;22.80;67.00
68691;DHT22;55675;49.588;8.640;2023-06-24T06:38:13;22.80;66.70
68691;DHT22;55675;49.588;8.640;2023-06-24T06:40:39;22.90;66.00
68691;DHT22;55675;49.588;8.640;2023-06-24T06:43:05;23.00;65.50
68691;DHT22;55675;49.588;8.640;2023-06-24T06:45:31;23.10;65.40
68691;DHT22;55675;49.588;8.640;2023-06-24T06:47:56;23.10;64.10
68691;DHT22;55675;49.588;8.640;2023-06-24T06:50:21;23.30;64.50
68691;DHT22;55675;49.588;8.640;2023-06-24T06:52:47;23.30;63.00
68691;DHT22;55675;49.588;8.640;2023-06-24T06:55:12;23.30;62.20
68691;DHT22;55675;49.588;8.640;2023-06-24T06:57:38;23.40;62.60
68691;DHT22;55675;49.588;8.640;2023-06-24T07:00:03;23.50;62.00
68691;DHT22;55675;49.588;8.640;2023-06-24T07:02:29;23.50;62.00
68691;DHT22;55675;49.588;8.640;2023-06-24T07:04:54;23.60;59.60
68691;DHT22;55675;49.588;8.640;2023-06-24T07:07:20;23.60;60.40
68691;DHT22;55675;49.588;8.640;2023-06-24T07:09:45;23.70;59.50
68691;DHT22;55675;49.588;8.640;2023-06-24T07:12:13;23.80;59.10
68691;DHT22;55675;49.588;8.640;2023-06-24T07:14:41;23.90;59.50
68691;DHT22;55675;49.588;8.640;2023-06-24T07:17:07;24.00;59.60
68691;DHT22;55675;49.588;8.640;2023-06-24T07:19:32;24.20;59.60
68691;DHT22;55675;49.588;8.640;2023-06-24T07:21:58;24.30;57.60
68691;DHT22;55675;49.588;8.640;2023-06-24T07:24:23;24.20;55.00
68691;DHT22;55675;49.588;8.640;2023-06-24T07:26:49;24.30;55.10
68691;DHT22;55675;49.588;8.640;2023-06-24T07:29:14;24.30;55.20
68691;DHT22;55675;49.588;8.640;2023-06-24T07:31:40;24.40;55.00
68691;DHT22;55675;49.588;8.640;2023-06-24T07:34:05;24.50;55.20
68691;DHT22;55675;49.588;8.640;2023-06-24T07:36:31;24.60;55.00
68691;DHT22;55675;49.588;8.640;2023-06-24T07:38:56;24.60;54.60
68691;DHT22;55675;49.588;8.640;2023-06-24T07:41:21;24.70;54.50
68691;DHT22;55675;49.588;8.640;2023-06-24T07:43:47;24.90;55.50
68691;DHT22;55675;49.588;8.640;2023-06-24T07:46:12;25.00;54.80
68691;DHT22;55675;49.588;8.640;2023-06-24T07:48:38;25.10;54.10
68691;DHT22;55675;49.588;8.640;2023-06-24T07:51:03;25.20;53.80
68691;DHT22;55675;49.588;8.640;2023-06-24T07:53:29;25.20;53.20
68691;DHT22;55675;49.588;8.640;2023-06-24T07:55:54;25.20;53.10
68691;DHT22;55675;49.588;8.640;2023-06-24T07:58:19;25.30;53.40
68691;DHT22;55675;49.588;8.640;2023-06-24T08:00:45;25.40;53.10
68691;DHT22;55675;49.588;8.640;2023-06-24T08:03:12;25.50;53.00
68691;DHT22;55675;49.588;8.640;2023-06-24T08:05:37;25.50;52.30
68691;DHT22;55675;49.588;8.640;2023-06-24T08:08:04;25.60;52.30
68691;DHT22;55675;49.588;8.640;2023-06-24T08:10:30;25.70;52.40
68691;DHT22;55675;49.588;8.640;2023-06-24T08:12:55;25.80;52.30
68691;DHT22;55675;49.588;8.640;2023-06-24T08:15:20;25.90;52.00
68691;DHT22;55675;49.588;8.640;2023-06-24T08:17:50;26.00;51.30
68691;DHT22;55675;49.588;8.640;2023-06-24T08:20:16;26.00;50.40
68691;DHT22;55675;49.588;8.640;2023-06-24T08:22:41;25.90;49.80
68691;DHT22;55675;49.588;8.640;2023-06-24T08:25:07;25.90;50.00
68691;DHT22;55675;49.588;8.640;2023-06-24T08:27:32;25.80;49.40
68691;DHT22;55675;49.588;8.640;2023-06-24T08:29:58;25.90;50.00
68691;DHT22;55675;49.588;8.640;2023-06-24T08:32:23;25.90;50.00
68691;DHT22;55675;49.588;8.640;2023-06-24T08:34:49;26.10;50.10
68691;DHT22;55675;49.588;8.640;2023-06-24T08:37:14;26.30;50.20
68691;DHT22;55675;49.588;8.640;2023-06-24T08:39:39;26.50;50.30
68691;DHT22;55675;49.588;8.640;2023-06-24T08:42:05;26.50;49.50
68691;DHT22;55675;49.588;8.640;2023-06-24T08:44:31;26.60;47.50
68691;DHT22;55675;49.588;8.640;2023-06-24T08:46:56;26.50;47.40
68691;DHT22;55675;49.588;8.640;2023-06-24T08:51:48;26.50;47.80
68691;DHT22;55675;49.588;8.640;2023-06-24T08:54:16;26.50;47.10
68691;DHT22;55675;49.588;8.640;2023-06-24T08:56:41;26.60;47.60
68691;DHT22;55675;49.588;8.640;2023-06-24T08:59:08;26.80;48.10
68691;DHT22;55675;49.588;8.640;2023-06-24T09:01:33;26.90;48.20
68691;DHT22;55675;49.588;8.640;2023-06-24T09:03:59;27.00;47.40
68691;DHT22;55675;49.588;8.640;2023-06-24T09:06:24;27.20;47.50
68691;DHT22;55675;49.588;8.640;2023-06-24T09:08:53;27.30;46.40
68691;DHT22;55675;49.588;8.640;2023-06-24T09:11:26;27.30;46.40
68691;DHT22;55675;49.588;8.640;2023-06-24T09:13:59;27.40;46.00
68691;DHT22;55675;49.588;8.640;2023-06-24T09:16:25;27.60;45.30
68691;DHT22;55675;49.588;8.640;2023-06-24T09:18:50;27.60;44.00
68691;DHT22;55675;49.588;8.640;2023-06-24T09:23:50;27.70;44.30
68691;DHT22;55675;49.588;8.640;2023-06-24T09:26:16;27.80;43.70
68691;DHT22;55675;49.588;8.640;2023-06-24T09:28:46;27.80;44.80
68691;DHT22;55675;49.588;8.640;2023-06-24T09:31:12;28.00;44.10
68691;DHT22;55675;49.588;8.640;2023-06-24T09:33:37;28.10;43.70
68691;DHT22;55675;49.588;8.640;2023-06-24T09:36:04;28.20;42.70
68691;DHT22;55675;49.588;8.640;2023-06-24T09:38:36;28.20;41.60
68691;DHT22;55675;49.588;8.640;2023-06-24T09:41:02;28.10;41.30
68691;DHT22;55675;49.588;8.640;2023-06-24T09:43:29;28.00;41.20
68691;DHT22;55675;49.588;8.640;2023-06-24T09:45:55;27.90;41.30
68691;DHT22;55675;49.588;8.640;2023-06-24T09:48:21;27.90;41.70
68691;DHT22;55675;49.588;8.640;2023-06-24T09:50:47;28.10;40.90
68691;DHT22;55675;49.588;8.640;2023-06-24T09:53:12;28.10;41.20
68691;DHT22;55675;49.588;8.640;2023-06-24T09:55:38;28.20;41.20
68691;DHT22;55675;49.588;8.640;2023-06-24T09:58:08;28.30;41.20
68691;DHT22;55675;49.588;8.640;2023-06-24T10:00:36;28.30;40.80
68691;DHT22;55675;49.588;8.640;2023-06-24T10:03:01;28.30;41.30
68691;DHT22;55675;49.588;8.640;2023-06-24T10:05:27;28.40;41.20
68691;DHT22;55675;49.588;8.640;2023-06-24T10:07:53;28.40;40.60
68691;DHT22;55675;49.588;8.640;2023-06-24T10:10:18;28.40;40.50
68691;DHT22;55675;49.588;8.640;2023-06-24T10:12:44;28.40;40.90
68691;DHT22;55675;49.588;8.640;2023-06-24T10:15:09;28.50;41.00
68691;DHT22;55675;49.588;8.640;2023-06-24T10:17:35;28.70;41.40
68691;DHT22;55675;49.588;8.640;2023-06-24T10:20:05;28.90;42.50
68691;DHT22;55675;49.588;8.640;2023-06-24T10:22:33;29.10;42.20
68691;DHT22;55675;49.588;8.640;2023-06-24T10:25:02;29.20;40.80
68691;DHT22;55675;49.588;8.640;2023-06-24T10:27:28;29.30;39.80
68691;DHT22;55675;49.588;8.640;2023-06-24T10:30:02;29.40;40.70
68691;DHT22;55675;49.588;8.640;2023-06-24T10:32:39;29.60;39.80
68691;DHT22;55675;49.588;8.640;2023-06-24T10:35:06;29.50;39.30
68691;DHT22;55675;49.588;8.640;2023-06-24T10:37:33;29.50;39.30
68691;DHT22;55675;49.588;8.640;2023-06-24T10:40:02;29.50;39.10
68691;DHT22;55675;49.588;8.640;2023-06-24T10:42:41;29.60;40.70
68691;DHT22;55675;49.588;8.640;2023-06-24T10:47:36;29.90;40.00
68691;DHT22;55675;49.588;8.640;2023-06-24T10:50:03;30.10;39.50
68691;DHT22;55675;49.588;8.640;2023-06-24T10:52:29;30.20;39.00
68691;DHT22;55675;49.588;8.640;2023-06-24T10:54:56;30.30;37.50
68691;DHT22;55675;49.588;8.640;2023-06-24T10:57:26;30.20;37.10
68691;DHT22;55675;49.588;8.640;2023-06-24T10:59:53;30.20;37.00
68691;DHT22;55675;49.588;8.640;2023-06-24T11:02:23;30.20;38.20
68691;DHT22;55675;49.588;8.640;2023-06-24T11:04:52;30.40;38.00
68691;DHT22;55675;49.588;8.640;2023-06-24T11:07:20;30.60;37.70
68691;DHT22;55675;49.588;8.640;2023-06-24T11:09:57;30.80;37.70
68691;DHT22;55675;49.588;8.640;2023-06-24T11:12:24;31.00;37.60
68691;DHT22;55675;49.588;8.640;2023-06-24T11:14:51;31.10;37.30
68691;DHT22;55675;49.588;8.640;2023-06-24T11:17:19;31.30;37.20
68691;DHT22;55675;49.588;8.640;2023-06-24T11:19:44;31.20;35.20
68691;DHT22;55675;49.588;8.640;2023-06-24T11:22:10;31.00;34.50
68691;DHT22;55675;49.588;8.640;2023-06-24T11:24:36;31.00;35.20
68691;DHT22;55675;49.588;8.640;2023-06-24T11:27:03;31.00;35.90
68691;DHT22;55675;49.588;8.640;2023-06-24T11:29:29;31.00;36.30
68691;DHT22;55675;49.588;8.640;2023-06-24T11:31:58;31.00;36.30
68691;DHT22;55675;49.588;8.640;2023-06-24T11:34:23;30.90;36.60
68691;DHT22;55675;49.588;8.640;2023-06-24T11:36:49;30.70;35.40
68691;DHT22;55675;49.588;8.640;2023-06-24T11:39:33;30.60;36.00
68691;DHT22;55675;49.588;8.640;2023-06-24T11:41:58;30.70;36.50
68691;DHT22;55675;49.588;8.640;2023-06-24T11:44:24;31.00;36.80
68691;DHT22;55675;49.588;8.640;2023-06-24T11:46:50;31.30;37.50
68691;DHT22;55675;49.588;8.640;2023-06-24T11:49:16;31.70;36.60
68691;DHT22;55675;49.588;8.640;2023-06-24T11:51:51;31.90;35.30
68691;DHT22;55675;49.588;8.640;2023-06-24T11:54:20;32.20;34.10
68691;DHT22;55675;49.588;8.640;2023-06-24T11:56:50;32.30;33.40
68691;DHT22;55675;49.588;8.640;2023-06-24T11:59:23;32.30;32.60
68691;DHT22;55675;49.588;8.640;2023-06-24T12:01:58;32.30;33.20
68691;DHT22;55675;49.588;8.640;2023-06-24T12:04:31;32.40;31.80
68691;DHT22;55675;49.588;8.640;2023-06-24T12:06:58;32.70;33.90
68691;DHT22;55675;49.588;8.640;2023-06-24T12:09:24;33.10;33.00
68691;DHT22;55675;49.588;8.640;2023-06-24T12:11:49;33.50;32.70
68691;DHT22;55675;49.588;8.640;2023-06-24T12:14:15;33.50;30.90
68691;DHT22;55675;49.588;8.640;2023-06-24T12:16:40;33.70;31.50
68691;DHT22;55675;49.588;8.640;2023-06-24T12:19:09;33.70;30.30
68691;DHT22;55675;49.588;8.640;2023-06-24T12:21:35;33.80;30.90
68691;DHT22;55675;49.588;8.640;2023-06-24T12:24:01;34.00;30.50
68691;DHT22;55675;49.588;8.640;2023-06-24T12:26:27;34.10;31.40
68691;DHT22;55675;49.588;8.640;2023-06-24T12:28:55;34.30;30.00
68691;DHT22;55675;49.588;8.640;2023-06-24T12:31:22;34.40;29.40
68691;DHT22;55675;49.588;8.640;2023-06-24T12:33:48;34.60;29.80
68691;DHT22;55675;49.588;8.640;2023-06-24T12:36:13;34.80;29.80
68691;DHT22;55675;49.588;8.640;2023-06-24T12:38:39;34.90;29.40
68691;DHT22;55675;49.588;8.640;2023-06-24T12:41:04;34.80;29.20
68691;DHT22;55675;49.588;8.640;2023-06-24T12:43:30;34.80;29.10
68691;DHT22;55675;49.588;8.640;2023-06-24T12:45:55;34.90;29.20
68691;DHT22;55675;49.588;8.640;2023-06-24T12:48:21;35.10;29.80
68691;DHT22;55675;49.588;8.640;2023-06-24T12:50:46;35.20;29.10
68691;DHT22;55675;49.588;8.640;2023-06-24T12:53:14;35.30;27.90
68691;DHT22;55675;49.588;8.640;2023-06-24T12:55:41;35.30;27.70
68691;DHT22;55675;49.588;8.640;2023-06-24T12:58:07;35.30;28.60
68691;DHT22;55675;49.588;8.640;2023-06-24T13:00:32;35.30;27.50
68691;DHT22;55675;49.588;8.640;2023-06-24T13:02:58;35.10;27.20
68691;DHT22;55675;49.588;8.640;2023-06-24T13:05:23;34.60;27.20
68691;DHT22;55675;49.588;8.640;2023-06-24T13:07:50;34.20;27.80
68691;DHT22;55675;49.588;8.640;2023-06-24T13:10:15;33.90;28.30
68691;DHT22;55675;49.588;8.640;2023-06-24T13:12:41;33.70;28.60
68691;DHT22;55675;49.588;8.640;2023-06-24T13:15:07;33.60;29.20
68691;DHT22;55675;49.588;8.640;2023-06-24T13:17:34;33.50;29.30
68691;DHT22;55675;49.588;8.640;2023-06-24T13:20:00;33.70;30.50
68691;DHT22;55675;49.588;8.640;2023-06-24T13:22:27;34.10;30.10
68691;DHT22;55675;49.588;8.640;2023-06-24T13:24:53;34.50;29.70
68691;DHT22;55675;49.588;8.640;2023-06-24T13:27:18;34.80;29.30
68691;DHT22;55675;49.588;8.640;2023-06-24T13:29:44;35.00;29.10
68691;DHT22;55675;49.588;8.640;2023-06-24T13:32:10;35.20;28.90
68691;DHT22;55675;49.588;8.640;2023-06-24T13:34:35;35.40;28.30
68691;DHT22;55675;49.588;8.640;2023-06-24T13:37:01;35.50;28.00
68691;DHT22;55675;49.588;8.640;2023-06-24T13:39:26;35.70;27.50
68691;DHT22;55675;49.588;8.640;2023-06-24T13:41:53;35.80;27.60
68691;DHT22;55675;49.588;8.640;2023-06-24T13:44:19;35.70;26.70
68691;DHT22;55675;49.588;8.640;2023-06-24T13:46:45;35.60;26.70
68691;DHT22;55675;49.588;8.640;2023-06-24T13:49:11;35.70;27.00
68691;DHT22;55675;49.588;8.640;2023-06-24T13:51:37;35.70;26.10
68691;DHT22;55675;49.588;8.640;2023-06-24T13:54:02;35.80;26.70
68691;DHT22;55675;49.588;8.640;2023-06-24T13:56:28;36.00;25.60
68691;DHT22;55675;49.588;8.640;2023-06-24T13:58:55;36.90;25.50
68691;DHT22;55675;49.588;8.640;2023-06-24T14:01:21;39.50;23.40
68691;DHT22;55675;49.588;8.640;2023-06-24T14:03:47;42.80;21.80
68691;DHT22;55675;49.588;8.640;2023-06-24T14:06:17;45.60;20.00
68691;DHT22;55675;49.588;8.640;2023-06-24T14:08:44;47.50;17.80
68691;DHT22;55675;49.588;8.640;2023-06-24T14:11:10;48.70;16.70
68691;DHT22;55675;49.588;8.640;2023-06-24T14:13:36;49.80;16.70
68691;DHT22;55675;49.588;8.640;2023-06-24T14:16:02;51.70;16.80
68691;DHT22;55675;49.588;8.640;2023-06-24T14:18:28;53.50;15.50
68691;DHT22;55675;49.588;8.640;2023-06-24T14:21:02;54.80;13.90
68691;DHT22;55675;49.588;8.640;2023-06-24T14:23:29;55.60;13.40
68691;DHT22;55675;49.588;8.640;2023-06-24T14:25:55;56.30;12.70
68691;DHT22;55675;49.588;8.640;2023-06-24T14:28:21;56.90;12.90
68691;DHT22;55675;49.588;8.640;2023-06-24T14:30:47;57.90;12.40
68691;DHT22;55675;49.588;8.640;2023-06-24T14:33:13;58.70;12.00
68691;DHT22;55675;49.588;8.640;2023-06-24T14:35:40;59.30;11.60
68691;DHT22;55675;49.588;8.640;2023-06-24T14:38:05;59.90;11.20
68691;DHT22;55675;49.588;8.640;2023-06-24T14:40:32;60.00;10.50
68691;DHT22;55675;49.588;8.640;2023-06-24T14:42:57;60.20;10.90
68691;DHT22;55675;49.588;8.640;2023-06-24T14:45:23;60.50;10.70
68691;DHT22;55675;49.588;8.640;2023-06-24T14:47:48;60.40;10.40
68691;DHT22;55675;49.588;8.640;2023-06-24T14:50:14;60.30;10.60
68691;DHT22;55675;49.588;8.640;2023-06-24T14:52:40;60.20;10.20
68691;DHT22;55675;49.588;8.640;2023-06-24T14:55:06;59.60;10.30
68691;DHT22;55675;49.588;8.640;2023-06-24T14:57:31;59.70;10.80
68691;DHT22;55675;49.588;8.640;2023-06-24T14:59:57;59.80;10.60
68691;DHT22;55675;49.588;8.640;2023-06-24T15:02:22;60.10;10.60
68691;DHT22;55675;49.588;8.640;2023-06-24T15:04:50;60.30;10.40
68691;DHT22;55675;49.588;8.640;2023-06-24T15:07:15;60.60;10.30
68691;DHT22;55675;49.588;8.640;2023-06-24T15:09:41;60.60;10.10
68691;DHT22;55675;49.588;8.640;2023-06-24T15:12:06;60.10;10.30
68691;DHT22;55675;49.588;8.640;2023-06-24T15:14:32;59.50;10.20
68691;DHT22;55675;49.588;8.640;2023-06-24T15:16:57;59.00;10.30
68691;DHT22;55675;49.588;8.640;2023-06-24T15:19:24;58.90;10.50
68691;DHT22;55675;49.588;8.640;2023-06-24T15:21:49;58.30;10.60
68691;DHT22;55675;49.588;8.640;2023-06-24T15:24:15;58.10;11.10
68691;DHT22;55675;49.588;8.640;2023-06-24T15:26:40;58.50;11.30
68691;DHT22;55675;49.588;8.640;2023-06-24T15:29:06;59.10;10.80
68691;DHT22;55675;49.588;8.640;2023-06-24T15:31:31;59.00;10.20
68691;DHT22;55675;49.588;8.640;2023-06-24T15:33:57;58.90;10.50
68691;DHT22;55675;49.588;8.640;2023-06-24T15:36:23;59.00;10.50
68691;DHT22;55675;49.588;8.640;2023-06-24T15:38:52;59.40;10.40